sensor_id;sensor_type;location;lat;lon;timestamp;pressure;altitude;pressure_sealevel;temperature;humidity
11114;BME280;5610;52.154;9.198;2023-03-03T00:02:00;101526.44;;;4.42;100.00
11114;BME280;5610;52.154;9.198;2023-03-03T00:04:45;101526.50;;;4.40;100.00
11114;BME280;5610;52.154;9.198;2023-03-03T00:07:31;101514.25;;;4.38;100.00
11114;BME280;5610;52.154;9.198;2023-03-03T00:10:16;101521.22;;;4.40;100.00
11114;BME280;5610;52.154;9.198;2023-03-03T00:13:05;101516.78;;;4.41;100.00
11114;BME280;5610;52.154;9.198;2023-03-03T00:16:12;101517.69;;;4.40;100.00
11114;BME280;5610;52.154;9.198;2023-03-03T00:18:58;101513.38;;;4.37;100.00
11114;BME280;5610;52.154;9.198;2023-03-03T00:21:44;101515.16;;;4.37;100.00
11114;BME280;5610;52.154;9.198;2023-03-03T00:24:36;101519.59;;;4.33;100.00
11114;BME280;5610;52.154;9.198;2023-03-03T00:27:27;101511.78;;;4.29;100.00
11114;BME280;5610;52.154;9.198;2023-03-03T00:30:19;101518.81;;;4.28;100.00
11114;BME280;5610;52.154;9.198;2023-03-03T00:33:13;101522.47;;;4.23;100.00
11114;BME280;5610;52.154;9.198;2023-03-03T00:36:22;101519.00;;;4.21;100.00
11114;BME280;5610;52.154;9.198;2023-03-03T00:39:20;101519.00;;;4.21;100.00
11114;BME280;5610;52.154;9.198;2023-03-03T00:42:09;101505.03;;;4.16;100.00
11114;BME280;5610;52.154;9.198;2023-03-03T00:44:57;101507.66;;;4.16;100.00
11114;BME280;5610;52.154;9.198;2023-03-03T00:47:44;101499.00;;;4.10;100.00
11114;BME280;5610;52.154;9.198;2023-03-03T00:50:32;101510.47;;;4.09;100.00
11114;BME280;5610;52.154;9.198;2023-03-03T00:53:19;101520.16;;;4.07;100.00
11114;BME280;5610;52.154;9.198;2023-03-03T00:56:05;101514.91;;;4.06;100.00
11114;BME280;5610;52.154;9.198;2023-03-03T00:58:50;101515.03;;;4.00;100.00
11114;BME280;5610;52.154;9.198;2023-03-03T01:01:38;101522.16;;;3.96;100.00
11114;BME280;5610;52.154;9.198;2023-03-03T01:04:25;101531.16;;;3.84;100.00
11114;BME280;5610;52.154;9.198;2023-03-03T01:07:10;101526.84;;;3.82;100.00
11114;BME280;5610;52.154;9.198;2023-03-03T01:09:57;101534.06;;;3.71;100.00
11114;BME280;5610;52.154;9.198;2023-03-03T01:12:42;101522.47;;;3.79;100.00
11114;BME280;5610;52.154;9.198;2023-03-03T01:15:27;101519.78;;;3.82;100.00
11114;BME280;5610;52.154;9.198;2023-03-03T01:18:13;101519.06;;;3.74;100.00
11114;BME280;5610;52.154;9.198;2023-03-03T01:21:00;101531.28;;;3.78;100.00
11114;BME280;5610;52.154;9.198;2023-03-03T01:23:45;101533.91;;;3.78;100.00
11114;BME280;5610;52.154;9.198;2023-03-03T01:26:31;101545.19;;;3.86;100.00
11114;BME280;5610;52.154;9.198;2023-03-03T01:29:16;101545.13;;;3.90;100.00
11114;BME280;5610;52.154;9.198;2023-03-03T01:32:01;101548.59;;;3.92;100.00
11114;BME280;5610;52.154;9.198;2023-03-03T01:34:47;101545.03;;;3.94;100.00
11114;BME280;5610;52.154;9.198;2023-03-03T01:37:34;101533.72;;;3.89;100.00
11114;BME280;5610;52.154;9.198;2023-03-03T01:40:22;101537.13;;;3.94;100.00
11114;BME280;5610;52.154;9.198;2023-03-03T01:43:11;101533.53;;;3.98;100.00
11114;BME280;5610;52.154;9.198;2023-03-03T01:46:20;101529.19;;;3.96;100.00
11114;BME280;5610;52.154;9.198;2023-03-03T01:49:13;101543.28;;;3.95;100.00
11114;BME280;5610;52.154;9.198;2023-03-03T01:52:02;101541.63;;;3.89;100.00
11114;BME280;5610;52.154;9.198;2023-03-03T01:54:52;101524.13;;;3.85;100.00
11114;BME280;5610;52.154;9.198;2023-03-03T01:57:41;101518.06;;;3.80;100.00
11114;BME280;5610;52.154;9.198;2023-03-03T02:00:28;101519.84;;;3.79;100.00
11114;BME280;5610;52.154;9.198;2023-03-03T02:03:16;101533.06;;;3.78;100.00
11114;BME280;5610;52.154;9.198;2023-03-03T02:06:04;101524.34;;;3.74;100.00
11114;BME280;5610;52.154;9.198;2023-03-03T02:08:56;101529.63;;;3.73;100.00
11114;BME280;5610;52.154;9.198;2023-03-03T02:11:46;101525.25;;;3.72;100.00
11114;BME280;5610;52.154;9.198;2023-03-03T02:14:34;101528.88;;;3.68;100.00
11114;BME280;5610;52.154;9.198;2023-03-03T02:17:19;101523.63;;;3.65;100.00
11114;BME280;5610;52.154;9.198;2023-03-03T02:20:08;101520.25;;;3.60;100.00
11114;BME280;5610;52.154;9.198;2023-03-03T02:23:00;101528.13;;;3.61;100.00
11114;BME280;5610;52.154;9.198;2023-03-03T02:26:00;101529.84;;;3.62;100.00
11114;BME280;5610;52.154;9.198;2023-03-03T02:28:47;101536.88;;;3.62;100.00
11114;BME280;5610;52.154;9.198;2023-03-03T02:31:34;101536.06;;;3.60;100.00
11114;BME280;5610;52.154;9.198;2023-03-03T02:34:20;101543.88;;;3.63;100.00
11114;BME280;5610;52.154;9.198;2023-03-03T02:37:06;101535.97;;;3.63;100.00
11114;BME280;5610;52.154;9.198;2023-03-03T02:39:53;101532.56;;;3.57;100.00
11114;BME280;5610;52.154;9.198;2023-03-03T02:42:39;101525.44;;;3.63;100.00
11114;BME280;5610;52.154;9.198;2023-03-03T02:45:25;101533.34;;;3.63;100.00
11114;BME280;5610;52.154;9.198;2023-03-03T02:48:11;101533.38;;;3.61;100.00
11114;BME280;5610;52.154;9.198;2023-03-03T02:50:56;101516.69;;;3.61;100.00
11114;BME280;5610;52.154;9.198;2023-03-03T02:53:41;101522.00;;;3.57;100.00
11114;BME280;5610;52.154;9.198;2023-03-03T02:56:27;101521.97;;;3.59;100.00
11114;BME280;5610;52.154;9.198;2023-03-03T02:59:14;101518.47;;;3.58;100.00
11114;BME280;5610;52.154;9.198;2023-03-03T03:02:03;101522.91;;;3.56;100.00
11114;BME280;5610;52.154;9.198;2023-03-03T03:04:50;101516.81;;;3.54;100.00
11114;BME280;5610;52.154;9.198;2023-03-03T03:07:39;101515.06;;;3.53;100.00
11114;BME280;5610;52.154;9.198;2023-03-03T03:10:25;101521.19;;;3.55;100.00
11114;BME280;5610;52.154;9.198;2023-03-03T03:13:10;101519.41;;;3.56;100.00
11114;BME280;5610;52.154;9.198;2023-03-03T03:15:58;101515.06;;;3.53;100.00
11114;BME280;5610;52.154;9.198;2023-03-03T03:18:43;101522.94;;;3.55;100.00
11114;BME280;5610;52.154;9.198;2023-03-03T03:21:29;101530.06;;;3.50;100.00
11114;BME280;5610;52.154;9.198;2023-03-03T03:24:15;101540.66;;;3.45;100.00
11114;BME280;5610;52.154;9.198;2023-03-03T03:27:05;101538.13;;;3.41;100.00
11114;BME280;5610;52.154;9.198;2023-03-03T03:29:51;101545.25;;;3.36;100.00
11114;BME280;5610;52.154;9.198;2023-03-03T03:32:38;101535.56;;;3.36;100.00
11114;BME280;5610;52.154;9.198;2023-03-03T03:35:24;101538.28;;;3.33;100.00
11114;BME280;5610;52.154;9.198;2023-03-03T03:38:10;101543.53;;;3.33;100.00
11114;BME280;5610;52.154;9.198;2023-03-03T03:40:56;101542.69;;;3.31;100.00
11114;BME280;5610;52.154;9.198;2023-03-03T03:43:41;101551.56;;;3.25;100.00
11114;BME280;5610;52.154;9.198;2023-03-03T03:46:26;101545.38;;;3.28;100.00
11114;BME280;5610;52.154;9.198;2023-03-03T03:49:14;101551.53;;;3.27;100.00
11114;BME280;5610;52.154;9.198;2023-03-03T03:51:59;101539.34;;;3.21;100.00
11114;BME280;5610;52.154;9.198;2023-03-03T03:54:48;101527.94;;;3.21;100.00
11114;BME280;5610;52.154;9.198;2023-03-03T03:57:34;101527.00;;;3.23;100.00
11114;BME280;5610;52.154;9.198;2023-03-03T04:00:19;101519.97;;;3.24;100.00
11114;BME280;5610;52.154;9.198;2023-03-03T04:03:11;101527.94;;;3.21;100.00
11114;BME280;5610;52.154;9.198;2023-03-03T04:05:59;101533.25;;;3.19;100.00
11114;BME280;5610;52.154;9.198;2023-03-03T04:08:44;101521.81;;;3.20;100.00
11114;BME280;5610;52.154;9.198;2023-03-03T04:11:31;101531.50;;;3.18;100.00
11114;BME280;5610;52.154;9.198;2023-03-03T04:14:16;101534.13;;;3.20;100.00
11114;BME280;5610;52.154;9.198;2023-03-03T04:17:01;101525.31;;;3.21;100.00
11114;BME280;5610;52.154;9.198;2023-03-03T04:19:47;101528.88;;;3.18;100.00
11114;BME280;5610;52.154;9.198;2023-03-03T04:22:34;101529.75;;;3.19;100.00
11114;BME280;5610;52.154;9.198;2023-03-03T04:25:21;101535.91;;;3.16;100.00
11114;BME280;5610;52.154;9.198;2023-03-03T04:28:07;101532.41;;;3.16;100.00
11114;BME280;5610;52.154;9.198;2023-03-03T04:30:53;101539.47;;;3.14;100.00
11114;BME280;5610;52.154;9.198;2023-03-03T04:33:41;101540.34;;;3.14;100.00
11114;BME280;5610;52.154;9.198;2023-03-03T04:36:26;101540.38;;;3.13;100.00
11114;BME280;5610;52.154;9.198;2023-03-03T04:39:13;101543.00;;;3.13;100.00
11114;BME280;5610;52.154;9.198;2023-03-03T04:41:58;101546.53;;;3.12;100.00
11114;BME280;5610;52.154;9.198;2023-03-03T04:44:44;101550.09;;;3.08;100.00
11114;BME280;5610;52.154;9.198;2023-03-03T04:47:29;101556.22;;;3.08;100.00
11114;BME280;5610;52.154;9.198;2023-03-03T04:50:15;101564.16;;;3.07;100.00
11114;BME280;5610;52.154;9.198;2023-03-03T04:53:01;101561.47;;;3.10;100.00
11114;BME280;5610;52.154;9.198;2023-03-03T04:55:49;101571.19;;;3.06;100.00
11114;BME280;5610;52.154;9.198;2023-03-03T04:58:34;101570.38;;;3.02;100.00
11114;BME280;5610;52.154;9.198;2023-03-03T05:01:20;101566.09;;;2.97;100.00
11114;BME280;5610;52.154;9.198;2023-03-03T05:04:05;101567.06;;;2.88;100.00
11114;BME280;5610;52.154;9.198;2023-03-03T05:06:51;101567.94;;;2.89;100.00
11114;BME280;5610;52.154;9.198;2023-03-03T05:09:36;101577.56;;;2.91;100.00
11114;BME280;5610;52.154;9.198;2023-03-03T05:12:23;101570.59;;;2.87;100.00
11114;BME280;5610;52.154;9.198;2023-03-03T05:15:09;101582.94;;;2.85;100.00
11114;BME280;5610;52.154;9.198;2023-03-03T05:17:54;101589.00;;;2.89;100.00
11114;BME280;5610;52.154;9.198;2023-03-03T05:20:39;101583.69;;;2.93;100.00
11114;BME280;5610;52.154;9.198;2023-03-03T05:23:25;101583.84;;;2.83;100.00
11114;BME280;5610;52.154;9.198;2023-03-03T05:26:10;101592.63;;;2.83;100.00
11114;BME280;5610;52.154;9.198;2023-03-03T05:28:57;101586.47;;;2.84;100.00
11114;BME280;5610;52.154;9.198;2023-03-03T05:31:42;101591.75;;;2.83;100.00
11114;BME280;5610;52.154;9.198;2023-03-03T05:34:28;101586.44;;;2.86;100.00
11114;BME280;5610;52.154;9.198;2023-03-03T05:37:13;101580.28;;;2.85;100.00
11114;BME280;5610;52.154;9.198;2023-03-03T05:39:59;101578.53;;;2.86;100.00
11114;BME280;5610;52.154;9.198;2023-03-03T05:42:44;101574.09;;;2.88;100.00
11114;BME280;5610;52.154;9.198;2023-03-03T05:45:31;101575.03;;;2.85;100.00
11114;BME280;5610;52.154;9.198;2023-03-03T05:48:17;101575.06;;;2.84;100.00
11114;BME280;5610;52.154;9.198;2023-03-03T05:51:03;101567.19;;;2.82;100.00
11114;BME280;5610;52.154;9.198;2023-03-03T05:53:48;101575.94;;;2.84;100.00
11114;BME280;5610;52.154;9.198;2023-03-03T05:56:33;101559.19;;;2.88;100.00
11114;BME280;5610;52.154;9.198;2023-03-03T05:59:47;101556.53;;;2.90;100.00
11114;BME280;5610;52.154;9.198;2023-03-03T06:02:57;101556.53;;;2.90;100.00
11114;BME280;5610;52.154;9.198;2023-03-03T06:05:42;101567.06;;;2.90;100.00
11114;BME280;5610;52.154;9.198;2023-03-03T06:08:28;101561.81;;;2.90;100.00
11114;BME280;5610;52.154;9.198;2023-03-03T06:11:15;101575.03;;;2.85;100.00
11114;BME280;5610;52.154;9.198;2023-03-03T06:14:02;101573.41;;;2.77;100.00
11114;BME280;5610;52.154;9.198;2023-03-03T06:16:48;101573.44;;;2.73;100.00
11114;BME280;5610;52.154;9.198;2023-03-03T06:19:35;101573.34;;;2.80;100.00
11114;BME280;5610;52.154;9.198;2023-03-03T06:22:20;101584.75;;;2.80;100.00
11114;BME280;5610;52.154;9.198;2023-03-03T06:25:06;101582.91;;;2.87;100.00
11114;BME280;5610;52.154;9.198;2023-03-03T06:27:52;101587.25;;;2.88;100.00
11114;BME280;5610;52.154;9.198;2023-03-03T06:30:38;101589.94;;;2.85;100.00
11114;BME280;5610;52.154;9.198;2023-03-03T06:33:23;101589.84;;;2.92;100.00
11114;BME280;5610;52.154;9.198;2023-03-03T06:36:10;101598.56;;;2.97;100.00
11114;BME280;5610;52.154;9.198;2023-03-03T06:38:55;101606.34;;;3.03;100.00
11114;BME280;5610;52.154;9.198;2023-03-03T06:41:40;101607.19;;;3.06;100.00
11114;BME280;5610;52.154;9.198;2023-03-03T06:44:26;101603.59;;;3.11;100.00
11114;BME280;5610;52.154;9.198;2023-03-03T06:47:11;101614.06;;;3.16;100.00
11114;BME280;5610;52.154;9.198;2023-03-03T06:49:56;101619.22;;;3.22;100.00
11114;BME280;5610;52.154;9.198;2023-03-03T06:52:43;101624.50;;;3.22;100.00
11114;BME280;5610;52.154;9.198;2023-03-03T06:55:29;101623.56;;;3.26;100.00
11114;BME280;5610;52.154;9.198;2023-03-03T06:58:16;101632.44;;;3.20;100.00
11114;BME280;5610;52.154;9.198;2023-03-03T07:01:04;101634.13;;;3.23;100.00
11114;BME280;5610;52.154;9.198;2023-03-03T07:03:57;101618.19;;;3.34;100.00
11114;BME280;5610;52.154;9.198;2023-03-03T07:06:43;101627.75;;;3.39;100.00
11114;BME280;5610;52.154;9.198;2023-03-03T07:09:29;101625.00;;;3.45;100.00
11114;BME280;5610;52.154;9.198;2023-03-03T07:12:17;101628.41;;;3.50;100.00
11114;BME280;5610;52.154;9.198;2023-03-03T07:15:12;101635.41;;;3.54;100.00
11114;BME280;5610;52.154;9.198;2023-03-03T07:17:58;101639.72;;;3.57;100.00
11114;BME280;5610;52.154;9.198;2023-03-03T07:20:45;101640.63;;;3.56;100.00
11114;BME280;5610;52.154;9.198;2023-03-03T07:23:37;101646.84;;;3.53;100.00
11114;BME280;5610;52.154;9.198;2023-03-03T07:26:29;101640.66;;;3.54;100.00
11114;BME280;5610;52.154;9.198;2023-03-03T07:29:21;101638.84;;;3.58;100.00
11114;BME280;5610;52.154;9.198;2023-03-03T07:32:21;101655.50;;;3.58;100.00
11114;BME280;5610;52.154;9.198;2023-03-03T07:35:26;101658.22;;;3.55;100.00
11114;BME280;5610;52.154;9.198;2023-03-03T07:38:19;101662.63;;;3.55;100.00
11114;BME280;5610;52.154;9.198;2023-03-03T07:41:12;101667.81;;;3.60;100.00
11114;BME280;5610;52.154;9.198;2023-03-03T07:44:03;101671.22;;;3.65;100.00
11114;BME280;5610;52.154;9.198;2023-03-03T07:46:49;101668.56;;;3.68;100.00
11114;BME280;5610;52.154;9.198;2023-03-03T07:49:36;101666.69;;;3.74;100.00
11114;BME280;5610;52.154;9.198;2023-03-03T07:52:28;101663.06;;;3.81;100.00
11114;BME280;5610;52.154;9.198;2023-03-03T07:55:29;101672.59;;;3.89;100.00
11114;BME280;5610;52.154;9.198;2023-03-03T07:58:21;101677.84;;;3.90;100.00
11114;BME280;5610;52.154;9.198;2023-03-03T08:01:30;101672.56;;;3.90;100.00
11114;BME280;5610;52.154;9.198;2023-03-03T08:04:25;101669.97;;;3.89;100.00
11114;BME280;5610;52.154;9.198;2023-03-03T08:07:12;101681.22;;;3.98;100.00
11114;BME280;5610;52.154;9.198;2023-03-03T08:10:00;101677.63;;;4.02;100.00
11114;BME280;5610;52.154;9.198;2023-03-03T08:12:47;101670.47;;;4.07;100.00
11114;BME280;5610;52.154;9.198;2023-03-03T08:15:35;101673.88;;;4.14;100.00
11114;BME280;5610;52.154;9.198;2023-03-03T08:18:26;101674.69;;;4.19;100.00
11114;BME280;5610;52.154;9.198;2023-03-03T08:21:14;101676.34;;;4.25;100.00
11114;BME280;5610;52.154;9.198;2023-03-03T08:24:00;101678.78;;;4.34;100.00
11114;BME280;5610;52.154;9.198;2023-03-03T08:26:45;101677.06;;;4.33;100.00
11114;BME280;5610;52.154;9.198;2023-03-03T08:29:31;101673.34;;;4.41;100.00
11114;BME280;5610;52.154;9.198;2023-03-03T08:32:16;101682.09;;;4.45;100.00
11114;BME280;5610;52.154;9.198;2023-03-03T08:35:03;101677.69;;;4.46;100.00
11114;BME280;5610;52.154;9.198;2023-03-03T08:37:49;101673.00;;;4.60;100.00
11114;BME280;5610;52.154;9.198;2023-03-03T08:40:35;101678.25;;;4.61;100.00
11114;BME280;5610;52.154;9.198;2023-03-03T08:43:20;101670.97;;;4.73;100.00
11114;BME280;5610;52.154;9.198;2023-03-03T08:46:06;101673.47;;;4.79;100.00
11114;BME280;5610;52.154;9.198;2023-03-03T08:48:53;101664.50;;;4.87;100.00
11114;BME280;5610;52.154;9.198;2023-03-03T08:51:39;101673.00;;;5.02;100.00
11114;BME280;5610;52.154;9.198;2023-03-03T08:54:25;101668.38;;;5.11;100.00
11114;BME280;5610;52.154;9.198;2023-03-03T08:57:11;101679.66;;;5.18;100.00
11114;BME280;5610;52.154;9.198;2023-03-03T08:59:56;101680.44;;;5.23;100.00
11114;BME280;5610;52.154;9.198;2023-03-03T09:02:42;101692.47;;;5.35;100.00
11114;BME280;5610;52.154;9.198;2023-03-03T09:05:28;101693.22;;;5.41;100.00
11114;BME280;5610;52.154;9.198;2023-03-03T09:08:15;101686.06;;;5.46;100.00
11114;BME280;5610;52.154;9.198;2023-03-03T09:11:01;101688.56;;;5.53;100.00
11114;BME280;5610;52.154;9.198;2023-03-03T09:13:46;101690.19;;;5.58;100.00
11114;BME280;5610;52.154;9.198;2023-03-03T09:16:38;101699.03;;;5.57;100.00
11114;BME280;5610;52.154;9.198;2023-03-03T09:19:26;101685.94;;;5.51;100.00
11114;BME280;5610;52.154;9.198;2023-03-03T09:22:17;101688.56;;;5.53;100.00
11114;BME280;5610;52.154;9.198;2023-03-03T09:25:14;101688.59;;;5.51;100.00
11114;BME280;5610;52.154;9.198;2023-03-03T09:28:11;101687.78;;;5.47;100.00
11114;BME280;5610;52.154;9.198;2023-03-03T09:31:19;101692.16;;;5.50;100.00
11114;BME280;5610;52.154;9.198;2023-03-03T09:34:15;101689.31;;;5.58;100.00
11114;BME280;5610;52.154;9.198;2023-03-03T09:37:16;101686.25;;;5.74;100.00
11114;BME280;5610;52.154;9.198;2023-03-03T09:40:30;101691.31;;;5.84;100.00
11114;BME280;5610;52.154;9.198;2023-03-03T09:43:28;101698.31;;;5.86;100.00
11114;BME280;5610;52.154;9.198;2023-03-03T09:46:26;101693.78;;;5.90;100.00
11114;BME280;5610;52.154;9.198;2023-03-03T09:49:24;101692.00;;;5.93;100.00
11114;BME280;5610;52.154;9.198;2023-03-03T09:52:21;101696.13;;;6.03;100.00
11114;BME280;5610;52.154;9.198;2023-03-03T09:55:23;101694.91;;;6.17;100.00
11114;BME280;5610;52.154;9.198;2023-03-03T09:58:38;101709.66;;;6.25;100.00
11114;BME280;5610;52.154;9.198;2023-03-03T10:01:39;101706.19;;;6.23;100.00
11114;BME280;5610;52.154;9.198;2023-03-03T10:04:51;101708.63;;;6.31;100.00
11114;BME280;5610;52.154;9.198;2023-03-03T10:07:48;101704.38;;;6.25;100.00
11114;BME280;5610;52.154;9.198;2023-03-03T10:10:47;101713.66;;;6.40;100.00
11114;BME280;5610;52.154;9.198;2023-03-03T10:13:47;101709.00;;;6.50;100.00
11114;BME280;5610;52.154;9.198;2023-03-03T10:16:47;101712.84;;;6.71;100.00
11114;BME280;5610;52.154;9.198;2023-03-03T10:19:37;101712.47;;;6.83;98.88
11114;BME280;5610;52.154;9.198;2023-03-03T10:22:28;101711.75;;;7.07;96.41
11114;BME280;5610;52.154;9.198;2023-03-03T10:25:27;101708.16;;;7.38;91.88
11114;BME280;5610;52.154;9.198;2023-03-03T10:28:32;101709.28;;;7.85;90.13
11114;BME280;5610;52.154;9.198;2023-03-03T10:31:33;101710.59;;;8.25;84.99
11114;BME280;5610;52.154;9.198;2023-03-03T10:34:36;101711.34;;;8.29;83.20
11114;BME280;5610;52.154;9.198;2023-03-03T10:37:31;101709.38;;;8.09;83.06
11114;BME280;5610;52.154;9.198;2023-03-03T10:40:25;101710.69;;;7.97;83.70
11114;BME280;5610;52.154;9.198;2023-03-03T10:43:27;101711.81;;;7.88;84.68
11114;BME280;5610;52.154;9.198;2023-03-03T10:46:29;101708.16;;;7.92;84.81
11114;BME280;5610;52.154;9.198;2023-03-03T10:49:29;101706.25;;;7.96;84.90
11114;BME280;5610;52.154;9.198;2023-03-03T10:52:31;101707.97;;;7.98;85.59
11114;BME280;5610;52.154;9.198;2023-03-03T10:55:27;101705.34;;;7.70;88.30
11114;BME280;5610;52.154;9.198;2023-03-03T10:58:41;101703.38;;;8.04;84.35
11114;BME280;5610;52.154;9.198;2023-03-03T11:01:39;101702.19;;;8.12;83.42
11114;BME280;5610;52.154;9.198;2023-03-03T11:04:46;101691.59;;;8.37;84.89
11114;BME280;5610;52.154;9.198;2023-03-03T11:07:39;101700.16;;;7.94;84.29
11114;BME280;5610;52.154;9.198;2023-03-03T11:10:36;101695.97;;;8.63;82.63
11114;BME280;5610;52.154;9.198;2023-03-03T11:13:30;101703.59;;;8.72;82.39
11114;BME280;5610;52.154;9.198;2023-03-03T11:16:33;101695.63;;;8.72;79.71
11114;BME280;5610;52.154;9.198;2023-03-03T11:19:31;101694.53;;;8.55;80.02
11114;BME280;5610;52.154;9.198;2023-03-03T11:22:30;101696.50;;;8.73;79.69
11114;BME280;5610;52.154;9.198;2023-03-03T11:25:24;101695.63;;;8.72;81.07
11114;BME280;5610;52.154;9.198;2023-03-03T11:28:21;101688.63;;;8.93;80.13
11114;BME280;5610;52.154;9.198;2023-03-03T11:31:17;101688.41;;;8.99;78.99
11114;BME280;5610;52.154;9.198;2023-03-03T11:34:16;101682.09;;;9.02;79.46
11114;BME280;5610;52.154;9.198;2023-03-03T11:37:07;101683.34;;;9.15;77.88
11114;BME280;5610;52.154;9.198;2023-03-03T11:39:56;101680.91;;;9.32;77.33
11114;BME280;5610;52.154;9.198;2023-03-03T11:42:54;101683.28;;;9.40;76.68
11114;BME280;5610;52.154;9.198;2023-03-03T11:45:46;101682.63;;;9.77;76.01
11114;BME280;5610;52.154;9.198;2023-03-03T11:48:38;101673.81;;;10.17;73.56
11114;BME280;5610;52.154;9.198;2023-03-03T11:51:36;101671.19;;;10.38;71.09
11114;BME280;5610;52.154;9.198;2023-03-03T11:54:27;101673.19;;;10.33;70.29
11114;BME280;5610;52.154;9.198;2023-03-03T11:57:18;101668.41;;;10.19;69.91
11114;BME280;5610;52.154;9.198;2023-03-03T12:00:19;101674.06;;;9.91;71.46
11114;BME280;5610;52.154;9.198;2023-03-03T12:03:15;101672.22;;;10.13;73.54
11114;BME280;5610;52.154;9.198;2023-03-03T12:06:12;101669.50;;;10.15;71.37
11114;BME280;5610;52.154;9.198;2023-03-03T12:09:12;101667.56;;;10.18;70.25
11114;BME280;5610;52.154;9.198;2023-03-03T12:12:05;101660.91;;;10.08;72.10
11114;BME280;5610;52.154;9.198;2023-03-03T12:15:06;101660.41;;;9.99;71.49
11114;BME280;5610;52.154;9.198;2023-03-03T12:18:07;101655.25;;;9.96;73.37
11114;BME280;5610;52.154;9.198;2023-03-03T12:21:06;101658.75;;;9.76;71.36
11114;BME280;5610;52.154;9.198;2023-03-03T12:24:10;101648.56;;;9.85;71.94
11114;BME280;5610;52.154;9.198;2023-03-03T12:27:10;101642.38;;;9.85;72.62
11114;BME280;5610;52.154;9.198;2023-03-03T12:30:05;101633.69;;;10.02;71.76
11114;BME280;5610;52.154;9.198;2023-03-03T12:33:09;101638.78;;;10.47;70.82
11114;BME280;5610;52.154;9.198;2023-03-03T12:36:05;101632.34;;;11.09;65.93
11114;BME280;5610;52.154;9.198;2023-03-03T12:38:59;101619.97;;;11.25;64.52
11114;BME280;5610;52.154;9.198;2023-03-03T12:41:52;101623.47;;;11.45;62.80
11114;BME280;5610;52.154;9.198;2023-03-03T12:44:46;101624.03;;;10.78;64.21
11114;BME280;5610;52.154;9.198;2023-03-03T12:47:38;101622.16;;;10.61;64.62
11114;BME280;5610;52.154;9.198;2023-03-03T12:50:33;101628.03;;;10.30;65.77
11114;BME280;5610;52.154;9.198;2023-03-03T12:53:32;101623.56;;;9.47;68.88
11114;BME280;5610;52.154;9.198;2023-03-03T12:56:25;101622.75;;;10.08;69.19
11114;BME280;5610;52.154;9.198;2023-03-03T12:59:19;101616.59;;;10.47;67.04
11114;BME280;5610;52.154;9.198;2023-03-03T13:02:24;101623.59;;;10.49;66.25
11114;BME280;5610;52.154;9.198;2023-03-03T13:05:19;101607.91;;;10.62;65.15
11114;BME280;5610;52.154;9.198;2023-03-03T13:08:20;101612.28;;;10.44;63.96
11114;BME280;5610;52.154;9.198;2023-03-03T13:11:23;101611.56;;;12.21;60.02
11114;BME280;5610;52.154;9.198;2023-03-03T13:14:19;101605.88;;;13.85;56.26
11114;BME280;5610;52.154;9.198;2023-03-03T13:17:16;101592.03;;;15.34;51.39
11114;BME280;5610;52.154;9.198;2023-03-03T13:20:14;101592.97;;;16.51;47.51
11114;BME280;5610;52.154;9.198;2023-03-03T13:23:06;101600.25;;;15.85;47.72
11114;BME280;5610;52.154;9.198;2023-03-03T13:25:56;101599.56;;;15.15;49.32
11114;BME280;5610;52.154;9.198;2023-03-03T13:28:55;101607.16;;;14.52;50.16
11114;BME280;5610;52.154;9.198;2023-03-03T13:31:47;101604.19;;;13.98;50.20
11114;BME280;5610;52.154;9.198;2023-03-03T13:34:40;101603.16;;;13.09;52.83
11114;BME280;5610;52.154;9.198;2023-03-03T13:37:31;101601.41;;;12.61;55.12
11114;BME280;5610;52.154;9.198;2023-03-03T13:40:21;101597.00;;;11.94;56.03
11114;BME280;5610;52.154;9.198;2023-03-03T13:43:13;101596.56;;;11.67;58.11
11114;BME280;5610;52.154;9.198;2023-03-03T13:46:04;101599.94;;;11.36;59.45
11114;BME280;5610;52.154;9.198;2023-03-03T13:49:09;101594.75;;;11.50;58.99
11114;BME280;5610;52.154;9.198;2023-03-03T13:52:02;101590.19;;;11.69;59.75
11114;BME280;5610;52.154;9.198;2023-03-03T13:55:03;101577.00;;;12.18;57.95
11114;BME280;5610;52.154;9.198;2023-03-03T13:58:00;101577.50;;;12.42;56.54
11114;BME280;5610;52.154;9.198;2023-03-03T14:00:54;101581.91;;;11.93;57.28
11114;BME280;5610;52.154;9.198;2023-03-03T14:04:03;101579.88;;;11.80;57.65
11114;BME280;5610;52.154;9.198;2023-03-03T14:06:54;101584.31;;;11.63;58.57
11114;BME280;5610;52.154;9.198;2023-03-03T14:09:53;101574.69;;;11.77;59.67
11114;BME280;5610;52.154;9.198;2023-03-03T14:12:48;101570.81;;;11.66;59.40
11114;BME280;5610;52.154;9.198;2023-03-03T14:15:37;101577.16;;;10.92;60.76
11114;BME280;5610;52.154;9.198;2023-03-03T14:18:28;101571.13;;;11.06;61.61
11114;BME280;5610;52.154;9.198;2023-03-03T14:21:20;101570.16;;;11.26;60.59
11114;BME280;5610;52.154;9.198;2023-03-03T14:24:14;101572.59;;;11.84;59.49
11114;BME280;5610;52.154;9.198;2023-03-03T14:27:20;101564.22;;;14.81;52.98
11114;BME280;5610;52.154;9.198;2023-03-03T14:30:35;101546.69;;;16.71;46.32
11114;BME280;5610;52.154;9.198;2023-03-03T14:33:29;101546.84;;;17.52;44.65
11114;BME280;5610;52.154;9.198;2023-03-03T14:36:25;101548.22;;;20.21;39.87
11114;BME280;5610;52.154;9.198;2023-03-03T14:39:28;101543.03;;;19.45;39.48
11114;BME280;5610;52.154;9.198;2023-03-03T14:42:30;101547.88;;;17.63;43.44
11114;BME280;5610;52.154;9.198;2023-03-03T14:45:26;101539.91;;;18.52;42.46
11114;BME280;5610;52.154;9.198;2023-03-03T14:48:16;101535.25;;;17.98;41.94
11114;BME280;5610;52.154;9.198;2023-03-03T14:51:22;101537.00;;;17.40;42.93
11114;BME280;5610;52.154;9.198;2023-03-03T14:54:15;101527.47;;;20.00;39.79
11114;BME280;5610;52.154;9.198;2023-03-03T14:57:08;101528.03;;;20.25;38.98
11114;BME280;5610;52.154;9.198;2023-03-03T14:59:58;101508.28;;;20.84;38.57
11114;BME280;5610;52.154;9.198;2023-03-03T15:02:58;101512.44;;;20.98;37.86
11114;BME280;5610;52.154;9.198;2023-03-03T15:05:48;101508.75;;;21.08;37.23
11114;BME280;5610;52.154;9.198;2023-03-03T15:08:35;101512.16;;;21.69;36.27
11114;BME280;5610;52.154;9.198;2023-03-03T15:11:25;101499.22;;;19.52;38.91